sensor_id;sensor_type;location;lat;lon;timestamp;pressure;altitude;pressure_sealevel;temperature;humidity
72721;BME280;60835;50.974;10.322;2024-01-10T00:01:14;99831.47;;;-9.30;100.00
72721;BME280;60835;50.974;10.322;2024-01-10T00:03:41;99824.63;;;-9.40;100.00
72721;BME280;60835;50.974;10.322;2024-01-10T00:06:10;99827.19;;;-9.34;100.00
72721;BME280;60835;50.974;10.322;2024-01-10T00:08:37;99816.94;;;-9.40;100.00
72721;BME280;60835;50.974;10.322;2024-01-10T00:11:04;99812.66;;;-9.41;100.00
72721;BME280;60835;50.974;10.322;2024-01-10T00:13:31;99810.09;;;-9.41;100.00
72721;BME280;60835;50.974;10.322;2024-01-10T00:15:58;99804.97;;;-9.47;100.00
72721;BME280;60835;50.974;10.322;2024-01-10T00:18:25;99790.44;;;-9.60;100.00
72721;BME280;60835;50.974;10.322;2024-01-10T00:20:52;99788.75;;;-9.52;100.00
72721;BME280;60835;50.974;10.322;2024-01-10T00:23:22;99791.31;;;-9.52;100.00
72721;BME280;60835;50.974;10.322;2024-01-10T00:25:49;99781.06;;;-9.58;100.00
72721;BME280;60835;50.974;10.322;2024-01-10T00:28:16;99777.66;;;-9.54;100.00
72721;BME280;60835;50.974;10.322;2024-01-10T00:30:45;99778.50;;;-9.57;100.00
72721;BME280;60835;50.974;10.322;2024-01-10T00:33:14;99779.34;;;-9.56;100.00
72721;BME280;60835;50.974;10.322;2024-01-10T00:35:41;99775.06;;;-9.69;100.00
72721;BME280;60835;50.974;10.322;2024-01-10T00:38:09;99774.19;;;-9.71;100.00
72721;BME280;60835;50.974;10.322;2024-01-10T00:40:35;99767.38;;;-9.75;100.00
72721;BME280;60835;50.974;10.322;2024-01-10T00:43:03;99757.13;;;-9.81;100.00
72721;BME280;60835;50.974;10.322;2024-01-10T00:45:30;99763.97;;;-9.68;100.00
72721;BME280;60835;50.974;10.322;2024-01-10T00:47:57;99762.25;;;-9.71;100.00
72721;BME280;60835;50.974;10.322;2024-01-10T00:50:24;99752.88;;;-9.75;100.00
72721;BME280;60835;50.974;10.322;2024-01-10T00:52:50;99771.63;;;-9.85;100.00
72721;BME280;60835;50.974;10.322;2024-01-10T00:55:17;99763.91;;;-9.97;100.00
72721;BME280;60835;50.974;10.322;2024-01-10T00:57:44;99753.69;;;-9.90;100.00
72721;BME280;60835;50.974;10.322;2024-01-10T01:00:11;99751.16;;;-9.79;100.00
72721;BME280;60835;50.974;10.322;2024-01-10T01:02:37;99747.75;;;-9.75;100.00
72721;BME280;60835;50.974;10.322;2024-01-10T01:05:06;99746.03;;;-9.68;100.00
72721;BME280;60835;50.974;10.322;2024-01-10T01:07:36;99734.97;;;-9.58;100.00
72721;BME280;60835;50.974;10.322;2024-01-10T01:10:03;99734.06;;;-9.74;100.00
72721;BME280;60835;50.974;10.322;2024-01-10T01:12:30;99740.94;;;-9.62;100.00
72721;BME280;60835;50.974;10.322;2024-01-10T01:14:57;99735.81;;;-9.64;100.00
72721;BME280;60835;50.974;10.322;2024-01-10T01:17:24;99731.53;;;-9.51;100.00
72721;BME280;60835;50.974;10.322;2024-01-10T01:19:50;99734.94;;;-9.55;100.00
72721;BME280;60835;50.974;10.322;2024-01-10T01:22:17;99720.44;;;-9.55;100.00
72721;BME280;60835;50.974;10.322;2024-01-10T01:24:44;99726.41;;;-9.60;100.00
72721;BME280;60835;50.974;10.322;2024-01-10T01:27:11;99726.41;;;-9.60;100.00
72721;BME280;60835;50.974;10.322;2024-01-10T01:29:37;99721.28;;;-9.63;100.00
72721;BME280;60835;50.974;10.322;2024-01-10T01:32:04;99721.28;;;-9.60;100.00
72721;BME280;60835;50.974;10.322;2024-01-10T01:34:31;99713.59;;;-9.60;100.00
72721;BME280;60835;50.974;10.322;2024-01-10T01:36:58;99719.59;;;-9.58;100.00
72721;BME280;60835;50.974;10.322;2024-01-10T01:39:24;99717.88;;;-9.56;100.00
72721;BME280;60835;50.974;10.322;2024-01-10T01:41:51;99721.28;;;-9.60;100.00
72721;BME280;60835;50.974;10.322;2024-01-10T01:44:17;99717.03;;;-9.64;100.00
72721;BME280;60835;50.974;10.322;2024-01-10T01:46:46;99723.00;;;-9.62;100.00
72721;BME280;60835;50.974;10.322;2024-01-10T01:49:14;99711.91;;;-9.69;100.00
72721;BME280;60835;50.974;10.322;2024-01-10T01:51:41;99729.00;;;-9.66;100.00
72721;BME280;60835;50.974;10.322;2024-01-10T01:54:09;99733.22;;;-9.71;100.00
72721;BME280;60835;50.974;10.322;2024-01-10T01:56:38;99716.16;;;-9.81;100.00
72721;BME280;60835;50.974;10.322;2024-01-10T01:59:05;99716.16;;;-9.78;100.00
72721;BME280;60835;50.974;10.322;2024-01-10T02:01:32;99716.16;;;-9.81;100.00
72721;BME280;60835;50.974;10.322;2024-01-10T02:04:01;99704.22;;;-9.70;100.00
72721;BME280;60835;50.974;10.322;2024-01-10T02:06:29;99706.78;;;-9.70;100.00
72721;BME280;60835;50.974;10.322;2024-01-10T02:08:57;99682.00;;;-9.59;100.00
72721;BME280;60835;50.974;10.322;2024-01-10T02:11:25;99690.53;;;-9.63;100.00
72721;BME280;60835;50.974;10.322;2024-01-10T02:13:52;99692.28;;;-9.53;100.00
72721;BME280;60835;50.974;10.322;2024-01-10T02:16:21;99685.44;;;-9.48;100.00
72721;BME280;60835;50.974;10.322;2024-01-10T02:18:52;99692.25;;;-9.44;100.00
72721;BME280;60835;50.974;10.322;2024-01-10T02:21:21;99678.59;;;-9.49;100.00
72721;BME280;60835;50.974;10.322;2024-01-10T02:23:48;99682.88;;;-9.54;100.00
72721;BME280;60835;50.974;10.322;2024-01-10T02:26:15;99673.50;;;-9.58;100.00
72721;BME280;60835;50.974;10.322;2024-01-10T02:28:42;99687.97;;;-9.57;100.00
72721;BME280;60835;50.974;10.322;2024-01-10T02:31:09;99683.72;;;-9.55;100.00
72721;BME280;60835;50.974;10.322;2024-01-10T02:33:36;99666.63;;;-9.61;100.00
72721;BME280;60835;50.974;10.322;2024-01-10T02:36:03;99673.47;;;-9.60;100.00
72721;BME280;60835;50.974;10.322;2024-01-10T02:38:31;99679.44;;;-9.55;100.00
72721;BME280;60835;50.974;10.322;2024-01-10T02:40:58;99672.59;;;-9.53;100.00
72721;BME280;60835;50.974;10.322;2024-01-10T02:43:24;99670.06;;;-9.60;100.00
72721;BME280;60835;50.974;10.322;2024-01-10T02:45:51;99658.13;;;-9.58;100.00
72721;BME280;60835;50.974;10.322;2024-01-10T02:48:18;99660.66;;;-9.60;100.00
72721;BME280;60835;50.974;10.322;2024-01-10T02:50:45;99664.94;;;-9.62;100.00
72721;BME280;60835;50.974;10.322;2024-01-10T02:53:12;99659.84;;;-9.66;100.00
72721;BME280;60835;50.974;10.322;2024-01-10T02:55:38;99663.25;;;-9.64;100.00
72721;BME280;60835;50.974;10.322;2024-01-10T02:58:05;99664.06;;;-9.58;100.00
72721;BME280;60835;50.974;10.322;2024-01-10T03:00:32;99653.00;;;-9.61;100.00
72721;BME280;60835;50.974;10.322;2024-01-10T03:02:59;99649.56;;;-9.59;100.00
72721;BME280;60835;50.974;10.322;2024-01-10T03:05:25;99639.31;;;-9.48;100.00
72721;BME280;60835;50.974;10.322;2024-01-10T03:07:55;99633.38;;;-9.67;100.00
72721;BME280;60835;50.974;10.322;2024-01-10T03:10:21;99622.28;;;-9.75;100.00
72721;BME280;60835;50.974;10.322;2024-01-10T03:12:48;99629.09;;;-9.66;100.00
72721;BME280;60835;50.974;10.322;2024-01-10T03:15:15;99628.22;;;-9.68;100.00
72721;BME280;60835;50.974;10.322;2024-01-10T03:17:41;99629.09;;;-9.66;100.00
72721;BME280;60835;50.974;10.322;2024-01-10T03:20:08;99627.38;;;-9.70;100.00
72721;BME280;60835;50.974;10.322;2024-01-10T03:22:35;99622.25;;;-9.73;100.00
72721;BME280;60835;50.974;10.322;2024-01-10T03:25:02;99626.53;;;-9.75;100.00
72721;BME280;60835;50.974;10.322;2024-01-10T03:27:30;99630.78;;;-9.68;100.00
72721;BME280;60835;50.974;10.322;2024-01-10T03:29:56;99625.69;;;-9.79;100.00
72721;BME280;60835;50.974;10.322;2024-01-10T03:32:23;99631.66;;;-9.74;100.00
72721;BME280;60835;50.974;10.322;2024-01-10T03:34:50;99620.53;;;-9.71;100.00
72721;BME280;60835;50.974;10.322;2024-01-10T03:37:18;99612.00;;;-9.76;100.00
72721;BME280;60835;50.974;10.322;2024-01-10T03:39:44;99610.31;;;-9.77;100.00
72721;BME280;60835;50.974;10.322;2024-01-10T03:42:11;99618.00;;;-9.74;100.00
72721;BME280;60835;50.974;10.322;2024-01-10T03:44:38;99612.00;;;-9.76;100.00
72721;BME280;60835;50.974;10.322;2024-01-10T03:47:04;99615.44;;;-9.79;100.00
72721;BME280;60835;50.974;10.322;2024-01-10T03:49:32;99618.00;;;-9.76;100.00
72721;BME280;60835;50.974;10.322;2024-01-10T03:51:59;99615.44;;;-9.74;100.00
72721;BME280;60835;50.974;10.322;2024-01-10T03:54:26;99606.06;;;-9.66;100.00
72721;BME280;60835;50.974;10.322;2024-01-10T03:56:52;99613.72;;;-9.72;100.00
72721;BME280;60835;50.974;10.322;2024-01-10T03:59:19;99612.03;;;-9.78;100.00
72721;BME280;60835;50.974;10.322;2024-01-10T04:01:48;99600.06;;;-9.71;100.00
72721;BME280;60835;50.974;10.322;2024-01-10T04:04:15;99607.75;;;-9.76;100.00
72721;BME280;60835;50.974;10.322;2024-01-10T04:06:42;99610.31;;;-9.74;100.00
72721;BME280;60835;50.974;10.322;2024-01-10T04:09:09;99615.41;;;-9.71;100.00
72721;BME280;60835;50.974;10.322;2024-01-10T04:11:36;99606.91;;;-9.67;100.00
72721;BME280;60835;50.974;10.322;2024-01-10T04:14:03;99613.72;;;-9.84;100.00
72721;BME280;60835;50.974;10.322;2024-01-10T04:16:30;99614.59;;;-9.81;100.00
72721;BME280;60835;50.974;10.322;2024-01-10T04:18:57;99618.84;;;-9.75;100.00
72721;BME280;60835;50.974;10.322;2024-01-10T04:21:24;99618.00;;;-9.80;100.00
72721;BME280;60835;50.974;10.322;2024-01-10T04:23:50;99600.09;;;-9.80;100.00
72721;BME280;60835;50.974;10.322;2024-01-10T04:26:18;99606.03;;;-9.74;100.00
72721;BME280;60835;50.974;10.322;2024-01-10T04:28:45;99603.50;;;-9.81;100.00
72721;BME280;60835;50.974;10.322;2024-01-10T04:31:12;99608.63;;;-9.78;100.00
72721;BME280;60835;50.974;10.322;2024-01-10T04:33:38;99604.34;;;-9.70;100.00
72721;BME280;60835;50.974;10.322;2024-01-10T04:36:05;99605.22;;;-9.77;100.00
72721;BME280;60835;50.974;10.322;2024-01-10T04:38:32;99592.41;;;-9.85;100.00
72721;BME280;60835;50.974;10.322;2024-01-10T04:40:59;99606.06;;;-9.78;100.00
72721;BME280;60835;50.974;10.322;2024-01-10T04:43:26;99588.97;;;-9.81;100.00
72721;BME280;60835;50.974;10.322;2024-01-10T04:45:53;99610.31;;;-9.80;100.00
72721;BME280;60835;50.974;10.322;2024-01-10T04:48:19;99606.06;;;-9.83;100.00
72721;BME280;60835;50.974;10.322;2024-01-10T04:50:46;99593.28;;;-9.87;100.00
72721;BME280;60835;50.974;10.322;2024-01-10T04:53:13;99606.94;;;-9.79;100.00
72721;BME280;60835;50.974;10.322;2024-01-10T04:55:43;99603.50;;;-9.80;100.00
72721;BME280;60835;50.974;10.322;2024-01-10T04:58:09;99606.06;;;-9.78;100.00
72721;BME280;60835;50.974;10.322;2024-01-10T05:00:36;99593.25;;;-9.78;100.00
72721;BME280;60835;50.974;10.322;2024-01-10T05:03:03;99614.56;;;-9.70;100.00
72721;BME280;60835;50.974;10.322;2024-01-10T05:05:29;99610.28;;;-9.71;100.00
72721;BME280;60835;50.974;10.322;2024-01-10T05:07:56;99590.66;;;-9.71;100.00
72721;BME280;60835;50.974;10.322;2024-01-10T05:10:23;99596.66;;;-9.70;100.00
72721;BME280;60835;50.974;10.322;2024-01-10T05:12:50;99593.25;;;-9.72;100.00
72721;BME280;60835;50.974;10.322;2024-01-10T05:15:17;99592.38;;;-9.68;100.00
72721;BME280;60835;50.974;10.322;2024-01-10T05:17:43;99596.66;;;-9.67;100.00
72721;BME280;60835;50.974;10.322;2024-01-10T05:20:10;99588.97;;;-9.72;100.00
72721;BME280;60835;50.974;10.322;2024-01-10T05:22:37;99597.50;;;-9.70;100.00
72721;BME280;60835;50.974;10.322;2024-01-10T05:25:04;99588.97;;;-9.76;100.00
72721;BME280;60835;50.974;10.322;2024-01-10T05:27:31;99594.97;;;-9.74;100.00
72721;BME280;60835;50.974;10.322;2024-01-10T05:29:57;99600.06;;;-9.76;100.00
72721;BME280;60835;50.974;10.322;2024-01-10T05:32:26;99584.69;;;-9.68;100.00
72721;BME280;60835;50.974;10.322;2024-01-10T05:34:54;99595.81;;;-9.78;100.00
72721;BME280;60835;50.974;10.322;2024-01-10T05:37:21;99580.47;;;-9.83;100.00
72721;BME280;60835;50.974;10.322;2024-01-10T05:39:49;99584.72;;;-9.77;100.00
72721;BME280;60835;50.974;10.322;2024-01-10T05:42:16;99588.13;;;-9.84;100.00
72721;BME280;60835;50.974;10.322;2024-01-10T05:44:42;99587.28;;;-9.76;100.00
72721;BME280;60835;50.974;10.322;2024-01-10T05:47:09;99585.59;;;-9.80;100.00
72721;BME280;60835;50.974;10.322;2024-01-10T05:49:36;99583.00;;;-9.84;100.00
72721;BME280;60835;50.974;10.322;2024-01-10T05:52:03;99582.16;;;-9.80;100.00
72721;BME280;60835;50.974;10.322;2024-01-10T05:54:29;99588.13;;;-9.84;100.00
72721;BME280;60835;50.974;10.322;2024-01-10T05:56:57;99581.31;;;-9.85;100.00
72721;BME280;60835;50.974;10.322;2024-01-10T05:59:24;99570.22;;;-9.77;100.00
72721;BME280;60835;50.974;10.322;2024-01-10T06:01:55;99581.31;;;-9.84;100.00
72721;BME280;60835;50.974;10.322;2024-01-10T06:04:22;99575.31;;;-9.84;100.00
72721;BME280;60835;50.974;10.322;2024-01-10T06:06:49;99563.41;;;-9.88;100.00
72721;BME280;60835;50.974;10.322;2024-01-10T06:09:15;99577.06;;;-9.85;100.00
72721;BME280;60835;50.974;10.322;2024-01-10T06:11:49;99571.06;;;-9.84;100.00
72721;BME280;60835;50.974;10.322;2024-01-10T06:14:16;99555.72;;;-9.92;100.00
72721;BME280;60835;50.974;10.322;2024-01-10T06:16:43;99559.97;;;-9.92;100.00
72721;BME280;60835;50.974;10.322;2024-01-10T06:19:11;99560.84;;;-9.95;100.00
72721;BME280;60835;50.974;10.322;2024-01-10T06:21:38;99555.72;;;-9.92;100.00
72721;BME280;60835;50.974;10.322;2024-01-10T06:24:06;99541.22;;;-10.11;100.00
72721;BME280;60835;50.974;10.322;2024-01-10T06:26:34;99538.66;;;-9.94;100.00
72721;BME280;60835;50.974;10.322;2024-01-10T06:29:01;99552.31;;;-10.00;100.00
72721;BME280;60835;50.974;10.322;2024-01-10T06:31:28;99552.31;;;-9.87;100.00
72721;BME280;60835;50.974;10.322;2024-01-10T06:33:55;99554.84;;;-9.95;100.00
72721;BME280;60835;50.974;10.322;2024-01-10T06:36:22;99545.50;;;-10.04;100.00
72721;BME280;60835;50.974;10.322;2024-01-10T06:38:49;99547.19;;;-9.94;100.00
72721;BME280;60835;50.974;10.322;2024-01-10T06:41:16;99540.34;;;-9.95;100.00
72721;BME280;60835;50.974;10.322;2024-01-10T06:43:42;99536.97;;;-9.94;100.00
72721;BME280;60835;50.974;10.322;2024-01-10T06:46:09;99538.63;;;-9.77;100.00
72721;BME280;60835;50.974;10.322;2024-01-10T06:48:37;99549.72;;;-9.95;100.00
72721;BME280;60835;50.974;10.322;2024-01-10T06:51:14;99547.16;;;-9.81;100.00
72721;BME280;60835;50.974;10.322;2024-01-10T06:53:41;99563.38;;;-9.87;100.00
72721;BME280;60835;50.974;10.322;2024-01-10T06:56:09;99557.44;;;-9.87;100.00
72721;BME280;60835;50.974;10.322;2024-01-10T06:58:36;99564.25;;;-9.93;100.00
72721;BME280;60835;50.974;10.322;2024-01-10T07:01:03;99565.97;;;-9.88;100.00
72721;BME280;60835;50.974;10.322;2024-01-10T07:03:31;99555.72;;;-9.95;100.00
72721;BME280;60835;50.974;10.322;2024-01-10T07:05:58;99554.84;;;-9.89;100.00
72721;BME280;60835;50.974;10.322;2024-01-10T07:08:28;99551.44;;;-9.77;100.00
72721;BME280;60835;50.974;10.322;2024-01-10T07:10:57;99557.44;;;-9.91;100.00
72721;BME280;60835;50.974;10.322;2024-01-10T07:13:24;99565.13;;;-9.94;100.00
72721;BME280;60835;50.974;10.322;2024-01-10T07:15:50;99560.84;;;-10.05;100.00
72721;BME280;60835;50.974;10.322;2024-01-10T07:18:19;99560.88;;;-10.04;100.00
72721;BME280;60835;50.974;10.322;2024-01-10T07:20:46;99559.16;;;-9.96;100.00
72721;BME280;60835;50.974;10.322;2024-01-10T07:23:13;99567.66;;;-9.94;100.00
72721;BME280;60835;50.974;10.322;2024-01-10T07:25:40;99565.94;;;-9.95;100.00
72721;BME280;60835;50.974;10.322;2024-01-10T07:28:06;99564.28;;;-9.99;100.00
72721;BME280;60835;50.974;10.322;2024-01-10T07:30:33;99567.66;;;-10.00;100.00
72721;BME280;60835;50.974;10.322;2024-01-10T07:33:00;99557.44;;;-9.97;100.00
72721;BME280;60835;50.974;10.322;2024-01-10T07:35:27;99560.84;;;-9.98;100.00
72721;BME280;60835;50.974;10.322;2024-01-10T07:37:56;99564.25;;;-10.02;100.00
72721;BME280;60835;50.974;10.322;2024-01-10T07:40:23;99565.94;;;-9.98;100.00
72721;BME280;60835;50.974;10.322;2024-01-10T07:42:52;99572.78;;;-9.97;100.00
72721;BME280;60835;50.974;10.322;2024-01-10T07:45:18;99574.50;;;-9.94;100.00
72721;BME280;60835;50.974;10.322;2024-01-10T07:47:45;99575.34;;;-9.87;100.00
72721;BME280;60835;50.974;10.322;2024-01-10T07:50:13;99565.97;;;-9.85;100.00
72721;BME280;60835;50.974;10.322;2024-01-10T07:52:42;99567.66;;;-9.94;100.00
72721;BME280;60835;50.974;10.322;2024-01-10T07:55:09;99560.84;;;-9.96;100.00
72721;BME280;60835;50.974;10.322;2024-01-10T07:57:36;99561.72;;;-10.02;100.00
72721;BME280;60835;50.974;10.322;2024-01-10T08:00:06;99577.88;;;-9.81;100.00
72721;BME280;60835;50.974;10.322;2024-01-10T08:02:37;99560.81;;;-9.76;100.00
72721;BME280;60835;50.974;10.322;2024-01-10T08:05:06;99553.97;;;-9.68;100.00
72721;BME280;60835;50.974;10.322;2024-01-10T08:07:37;99573.63;;;-9.75;100.00
72721;BME280;60835;50.974;10.322;2024-01-10T08:10:08;99570.19;;;-9.78;100.00
72721;BME280;60835;50.974;10.322;2024-01-10T08:12:37;99555.63;;;-9.55;100.00
72721;BME280;60835;50.974;10.322;2024-01-10T08:15:05;99554.00;;;-9.74;100.00
72721;BME280;60835;50.974;10.322;2024-01-10T08:17:34;99559.81;;;-9.32;100.00
72721;BME280;60835;50.974;10.322;2024-01-10T08:20:02;99560.66;;;-9.25;100.00
72721;BME280;60835;50.974;10.322;2024-01-10T08:22:30;99577.84;;;-9.45;100.00
72721;BME280;60835;50.974;10.322;2024-01-10T08:24:57;99558.75;;;-8.84;100.00
72721;BME280;60835;50.974;10.322;2024-01-10T08:27:23;99577.69;;;-9.03;100.00
72721;BME280;60835;50.974;10.322;2024-01-10T08:29:50;99565.50;;;-8.68;100.00
72721;BME280;60835;50.974;10.322;2024-01-10T08:32:17;99593.09;;;-9.21;100.00
72721;BME280;60835;50.974;10.322;2024-01-10T08:34:45;99591.25;;;-8.86;100.00
72721;BME280;60835;50.974;10.322;2024-01-10T08:37:11;99589.50;;;-8.78;100.00
72721;BME280;60835;50.974;10.322;2024-01-10T08:39:38;99599.94;;;-9.14;100.00
72721;BME280;60835;50.974;10.322;2024-01-10T08:42:04;99587.44;;;-8.24;100.00
72721;BME280;60835;50.974;10.322;2024-01-10T08:44:31;99609.03;;;-8.57;100.00
72721;BME280;60835;50.974;10.322;2024-01-10T08:46:57;99602.28;;;-8.73;100.00
72721;BME280;60835;50.974;10.322;2024-01-10T08:49:24;99609.00;;;-8.46;100.00
72721;BME280;60835;50.974;10.322;2024-01-10T08:51:52;99624.47;;;-8.58;100.00
72721;BME280;60835;50.974;10.322;2024-01-10T08:54:20;99622.72;;;-8.55;100.00
72721;BME280;60835;50.974;10.322;2024-01-10T08:56:49;99620.53;;;-7.86;100.00
72721;BME280;60835;50.974;10.322;2024-01-10T08:59:15;99613.34;;;-7.53;100.00
72721;BME280;60835;50.974;10.322;2024-01-10T09:01:42;99626.81;;;-7.29;100.00
72721;BME280;60835;50.974;10.322;2024-01-10T09:04:09;99639.22;;;-7.71;100.00
72721;BME280;60835;50.974;10.322;2024-01-10T09:06:35;99640.59;;;-7.33;100.00
72721;BME280;60835;50.974;10.322;2024-01-10T09:09:02;99639.22;;;-6.90;100.00
72721;BME280;60835;50.974;10.322;2024-01-10T09:11:32;99651.34;;;-6.98;100.00
72721;BME280;60835;50.974;10.322;2024-01-10T09:14:05;99667.50;;;-7.74;100.00
72721;BME280;60835;50.974;10.322;2024-01-10T09:16:32;99666.41;;;-7.49;100.00
72721;BME280;60835;50.974;10.322;2024-01-10T09:18:58;99649.25;;;-6.66;100.00
72721;BME280;60835;50.974;10.322;2024-01-10T09:21:26;99678.63;;;-7.72;100.00
72721;BME280;60835;50.974;10.322;2024-01-10T09:23:53;99665.63;;;-6.73;100.00
72721;BME280;60835;50.974;10.322;2024-01-10T09:26:20;99653.69;;;-6.78;100.00
72721;BME280;60835;50.974;10.322;2024-01-10T09:28:46;99668.81;;;-7.30;100.00
72721;BME280;60835;50.974;10.322;2024-01-10T09:31:13;99666.75;;;-6.95;100.00
72721;BME280;60835;50.974;10.322;2024-01-10T09:33:40;99668.66;;;-6.41;100.00
72721;BME280;60835;50.974;10.322;2024-01-10T09:36:07;99663.94;;;-6.75;100.00
72721;BME280;60835;50.974;10.322;2024-01-10T09:38:37;99668.56;;;-7.06;100.00
72721;BME280;60835;50.974;10.322;2024-01-10T09:41:04;99663.56;;;-5.87;100.00
72721;BME280;60835;50.974;10.322;2024-01-10T09:43:32;99666.28;;;-6.59;100.00
72721;BME280;60835;50.974;10.322;2024-01-10T09:46:02;99667.03;;;-5.88;100.00
72721;BME280;60835;50.974;10.322;2024-01-10T09:48:31;99659.03;;;-6.30;100.00
72721;BME280;60835;50.974;10.322;2024-01-10T09:50:59;99659.13;;;-5.79;100.00
72721;BME280;60835;50.974;10.322;2024-01-10T09:53:26;99664.25;;;-6.34;100.00
72721;BME280;60835;50.974;10.322;2024-01-10T09:55:53;99654.47;;;-5.56;100.00
72721;BME280;60835;50.974;10.322;2024-01-10T09:58:23;99648.19;;;-5.41;100.00
72721;BME280;60835;50.974;10.322;2024-01-10T10:00:53;99646.91;;;-5.18;100.00
72721;BME280;60835;50.974;10.322;2024-01-10T10:03:20;99645.84;;;-5.55;100.00
72721;BME280;60835;50.974;10.322;2024-01-10T10:05:46;99659.22;;;-6.43;100.00
72721;BME280;60835;50.974;10.322;2024-01-10T10:08:14;99659.16;;;-5.82;100.00
72721;BME280;60835;50.974;10.322;2024-01-10T10:10:42;99645.78;;;-5.05;100.00
72721;BME280;60835;50.974;10.322;2024-01-10T10:13:24;99652.25;;;-5.77;100.00
72721;BME280;60835;50.974;10.322;2024-01-10T10:16:00;99632.09;;;-5.54;100.00
72721;BME280;60835;50.974;10.322;2024-01-10T10:18:27;99660.03;;;-6.38;100.00
72721;BME280;60835;50.974;10.322;2024-01-10T10:21:10;99656.41;;;-5.70;100.00
72721;BME280;60835;50.974;10.322;2024-01-10T10:23:39;99640.19;;;-5.77;100.00
72721;BME280;60835;50.974;10.322;2024-01-10T10:26:14;99635.91;;;-5.27;100.00
72721;BME280;60835;50.974;10.322;2024-01-10T10:28:48;99634.16;;;-5.27;100.00
72721;BME280;60835;50.974;10.322;2024-01-10T10:31:16;99645.41;;;-5.31;100.00
72721;BME280;60835;50.974;10.322;2024-01-10T10:33:44;99657.97;;;-5.60;100.00
72721;BME280;60835;50.974;10.322;2024-01-10T10:36:14;99649.06;;;-4.95;100.00
72721;BME280;60835;50.974;10.322;2024-01-10T10:38:41;99641.28;;;-4.52;100.00
72721;BME280;60835;50.974;10.322;2024-01-10T10:41:07;99643.94;;;-4.55;100.00
72721;BME280;60835;50.974;10.322;2024-01-10T10:43:38;99632.34;;;-4.77;100.00
72721;BME280;60835;50.974;10.322;2024-01-10T10:46:07;99645.44;;;-5.83;100.00
72721;BME280;60835;50.974;10.322;2024-01-10T10:48:36;99657.13;;;-5.12;100.00
72721;BME280;60835;50.974;10.322;2024-01-10T10:53:43;99645.22;;;-4.74;100.00
72721;BME280;60835;50.974;10.322;2024-01-10T10:56:12;99639.28;;;-4.79;100.00
72721;BME280;60835;50.974;10.322;2024-01-10T10:58:41;99649.81;;;-5.37;100.00
72721;BME280;60835;50.974;10.322;2024-01-10T11:01:11;99654.63;;;-5.18;100.00
72721;BME280;60835;50.974;10.322;2024-01-10T11:03:40;99652.34;;;-4.07;100.00
72721;BME280;60835;50.974;10.322;2024-01-10T11:06:08;99646.38;;;-4.90;100.00
72721;BME280;60835;50.974;10.322;2024-01-10T11:08:40;99656.19;;;-4.63;100.00
72721;BME280;60835;50.974;10.322;2024-01-10T11:24:37;99660.09;;;-4.06;100.00
72721;BME280;60835;50.974;10.322;2024-01-10T11:27:11;99657.69;;;-3.77;100.00
72721;BME280;60835;50.974;10.322;2024-01-10T11:29:38;99645.31;;;-4.01;100.00
72721;BME280;60835;50.974;10.322;2024-01-10T11:32:07;99641.91;;;-3.32;100.00
72721;BME280;60835;50.974;10.322;2024-01-10T11:34:36;99648.22;;;-3.42;100.00
72721;BME280;60835;50.974;10.322;2024-01-10T11:37:09;99634.75;;;-2.90;100.00
72721;BME280;60835;50.974;10.322;2024-01-10T11:39:35;99630.44;;;-3.22;100.00
72721;BME280;60835;50.974;10.322;2024-01-10T11:42:02;99628.69;;;-2.89;100.00
72721;BME280;60835;50.974;10.322;2024-01-10T11:44:49;99608.91;;;-3.24;100.00
72721;BME280;60835;50.974;10.322;2024-01-10T11:47:17;99611.09;;;-3.09;100.00
72721;BME280;60835;50.974;10.322;2024-01-10T11:49:55;99599.69;;;-2.71;100.00
72721;BME280;60835;50.974;10.322;2024-01-10T11:52:22;99595.41;;;-2.15;100.00
72721;BME280;60835;50.974;10.322;2024-01-10T11:54:50;99574.84;;;-2.78;100.00
72721;BME280;60835;50.974;10.322;2024-01-10T11:59:44;99578.00;;;-2.98;100.00
72721;BME280;60835;50.974;10.322;2024-01-10T12:02:14;99588.91;;;-2.87;100.00
72721;BME280;60835;50.974;10.322;2024-01-10T12:04:41;99577.19;;;-3.00;100.00
72721;BME280;60835;50.974;10.322;2024-01-10T12:07:15;99583.59;;;-3.13;100.00
72721;BME280;60835;50.974;10.322;2024-01-10T12:09:42;99589.69;;;-2.85;100.00
72721;BME280;60835;50.974;10.322;2024-01-10T12:12:08;99587.66;;;-2.74;100.00
72721;BME280;60835;50.974;10.322;2024-01-10T12:14:37;99572.75;;;-3.59;100.00
72721;BME280;60835;50.974;10.322;2024-01-10T12:17:05;99593.28;;;-2.89;100.00
72721;BME280;60835;50.974;10.322;2024-01-10T12:19:34;99568.97;;;-2.85;100.00
72721;BME280;60835;50.974;10.322;2024-01-10T12:22:03;99577.56;;;-2.54;100.00
72721;BME280;60835;50.974;10.322;2024-01-10T12:24:33;99565.44;;;-3.42;100.00
72721;BME280;60835;50.974;10.322;2024-01-10T12:27:00;99587.78;;;-3.09;100.00
72721;BME280;60835;50.974;10.322;2024-01-10T12:29:26;99552.19;;;-3.01;100.00
72721;BME280;60835;50.974;10.322;2024-01-10T12:31:53;99575.25;;;-2.93;100.00
72721;BME280;60835;50.974;10.322;2024-01-10T12:34:20;99572.09;;;-3.34;100.00
72721;BME280;60835;50.974;10.322;2024-01-10T12:36:48;99584.69;;;-2.60;100.00
72721;BME280;60835;50.974;10.322;2024-01-10T12:39:16;99580.66;;;-2.41;100.00
72721;BME280;60835;50.974;10.322;2024-01-10T12:41:43;99565.22;;;-2.75;100.00
72721;BME280;60835;50.974;10.322;2024-01-10T12:44:12;99568.50;;;-2.40;100.00
72721;BME280;60835;50.974;10.322;2024-01-10T12:46:49;99546.50;;;-2.27;100.00
72721;BME280;60835;50.974;10.322;2024-01-10T12:49:18;99573.66;;;-2.11;100.00
72721;BME280;60835;50.974;10.322;2024-01-10T12:51:46;99558.34;;;-1.93;100.00
72721;BME280;60835;50.974;10.322;2024-01-10T12:54:15;99549.22;;;-2.30;100.00
72721;BME280;60835;50.974;10.322;2024-01-10T12:56:41;99568.50;;;-2.40;100.00
72721;BME280;60835;50.974;10.322;2024-01-10T12:59:08;99585.47;;;-2.87;100.00
72721;BME280;60835;50.974;10.322;2024-01-10T13:01:36;99590.91;;;-2.10;100.00